Time;durP1;ratioP1;P1;durP2;ratioP2;P2;SDS_P1;SDS_P2;PMS_P1;PMS_P2;Temp;Humidity;BMP_temperature;BMP_pressure;BME280_temperature;BME280_humidity;BME280_pressure;Samples;Min_cycle;Max_cycle;Signal;HPM_P1;HPM_P2
2021/11/13 09:58:46;;;;;;;11.70;4.63;;;19.80;96.80;;;;;;5096856;27;20999;-70
2021/11/13 10:01:14;;;;;;;14.03;4.17;;;21.00;94.70;;;;;;5092648;28;20217;-70
2021/11/13 10:03:40;;;;;;;14.03;4.10;;;21.20;94.30;;;;;;5089791;28;20866;-70
2021/11/13 10:06:13;;;;;;;7.23;4.10;;;21.20;93.90;;;;;;5079403;28;20630;-70
2021/11/13 10:08:41;;;;;;;11.00;4.13;;;21.30;93.40;;;;;;5080666;28;20187;-71
2021/11/13 10:11:14;;;;;;;22.33;4.97;;;21.50;92.70;;;;;;5076908;28;20189;-71
2021/11/13 10:14:05;;;;;;;9.90;3.70;;;21.60;92.50;;;;;;5080769;28;20247;-71
2021/11/13 10:16:38;;;;;;;11.17;4.00;;;21.70;93.00;;;;;;5070089;28;20319;-72
2021/11/13 10:19:11;;;;;;;11.32;4.15;;;22.00;91.50;;;;;;5072624;28;20190;-70
2021/11/13 10:21:42;;;;;;;7.22;4.32;;;22.40;91.70;;;;;;5075723;28;20186;-69
2021/11/13 10:24:19;;;;;;;9.30;4.30;;;22.80;92.70;;;;;;5069368;28;20303;-70
2021/11/13 10:26:52;;;;;;;13.48;4.30;;;23.60;91.70;;;;;;5071423;28;20198;-70
2021/11/13 10:29:31;;;;;;;14.15;4.85;;;24.90;92.00;;;;;;5074199;28;20179;-69
2021/11/13 10:32:09;;;;;;;7.60;4.57;;;26.00;91.10;;;;;;5075993;28;20189;-68
2021/11/13 10:34:42;;;;;;;21.50;4.78;;;26.40;90.50;;;;;;5069761;28;20186;-68
2021/11/13 10:37:28;;;;;;;17.00;4.72;;;26.30;88.20;;;;;;5049330;28;20231;-69
2021/11/13 10:40:05;;;;;;;12.88;4.47;;;25.30;88.00;;;;;;5071541;28;20624;-67
2021/11/13 10:42:31;;;;;;;24.20;4.95;;;24.70;89.30;;;;;;5073927;28;20280;-71
2021/11/13 10:45:00;;;;;;;9.35;4.47;;;24.70;87.50;;;;;;5070119;28;20190;-69
2021/11/13 10:47:33;;;;;;;10.32;4.72;;;24.70;84.90;;;;;;5072196;28;20233;-70
2021/11/13 10:50:32;;;;;;;8.65;4.72;;;24.80;87.10;;;;;;5061376;28;20940;-69
2021/11/13 10:53:12;;;;;;;10.32;4.50;;;24.80;86.80;;;;;;5064360;28;20259;-70
2021/11/13 10:56:14;;;;;;;10.90;5.30;;;24.70;85.70;;;;;;5075043;28;20264;-70
2021/11/13 10:59:00;;;;;;;10.65;4.80;;;24.30;86.50;;;;;;5066762;28;20313;-65
2021/11/13 11:01:48;;;;;;;20.13;5.45;;;23.90;85.10;;;;;;5064920;28;20221;-66
2021/11/13 11:04:26;;;;;;;12.30;4.97;;;23.60;87.00;;;;;;5069192;28;20186;-67
2021/11/13 11:07:09;;;;;;;9.65;5.10;;;23.40;87.40;;;;;;5061490;28;20210;-65
2021/11/13 11:09:44;;;;;;;20.02;5.45;;;;;;;;;;5041219;28;20241;-66
2021/11/13 11:12:15;;;;;;;16.60;5.07;;;23.20;87.50;;;;;;5052652;28;20191;-65
2021/11/13 11:14:49;;;;;;;13.40;4.78;;;23.20;87.70;;;;;;5052823;28;20212;-65
2021/11/13 11:17:24;;;;;;;17.55;4.93;;;23.20;87.40;;;;;;5051505;28;20269;-65
2021/11/13 11:19:53;;;;;;;11.57;5.13;;;23.10;86.80;;;;;;5050862;28;20187;-65
2021/11/13 11:22:25;;;;;;;11.93;5.18;;;23.00;86.60;;;;;;5038514;28;20207;-66
2021/11/13 11:25:01;;;;;;;11.52;4.68;;;23.00;86.50;;;;;;5053724;28;20619;-65
2021/11/13 11:27:29;;;;;;;14.98;5.80;;;23.10;88.20;;;;;;5054610;28;20290;-65
2021/11/13 11:30:06;;;;;;;13.38;5.60;;;23.10;89.80;;;;;;5062774;28;20191;-65
2021/11/13 11:32:45;;;;;;;10.77;5.13;;;23.10;90.10;;;;;;5054929;28;20198;-65
2021/11/13 11:35:20;;;;;;;19.38;5.93;;;23.10;89.30;;;;;;5058891;28;20340;-65
2021/11/13 11:38:12;;;;;;;22.23;5.85;;;23.10;89.90;;;;;;5059343;28;20225;-64
2021/11/13 11:40:49;;;;;;;19.97;6.47;;;23.10;89.50;;;;;;5059242;28;20210;-65
2021/11/13 11:43:16;;;;;;;12.27;6.13;;;23.10;90.10;;;;;;5055730;28;20270;-64
2021/11/13 11:45:45;;;;;;;17.75;7.45;;;23.10;90.40;;;;;;5059885;28;20240;-65
2021/11/13 11:48:16;;;;;;;22.52;6.82;;;23.10;92.10;;;;;;5047784;28;20187;-65
2021/11/13 11:50:51;;;;;;;22.67;7.70;;;23.10;91.80;;;;;;5052364;28;20599;-65
2021/11/13 11:53:19;;;;;;;19.40;7.70;;;;;;;;;;5051733;28;20187;-64
2021/11/13 11:55:49;;;;;;;26.03;8.03;;;23.20;92.00;;;;;;5059626;28;20190;-65
2021/11/13 11:58:21;;;;;;;28.52;8.50;;;23.20;92.60;;;;;;5053907;28;20246;-65
2021/11/13 12:00:52;;;;;;;19.50;7.65;;;23.20;93.60;;;;;;5059869;28;20186;-64
2021/11/13 12:03:34;;;;;;;16.55;7.63;;;23.10;92.60;;;;;;5061010;28;20214;-65
2021/11/13 12:06:01;;;;;;;15.73;7.20;;;23.00;92.80;;;;;;5062556;28;20482;-65
2021/11/13 12:08:34;;;;;;;22.93;7.27;;;22.90;93.10;;;;;;5061433;28;20232;-65
2021/11/13 12:11:23;;;;;;;19.63;6.88;;;22.80;92.70;;;;;;5057270;28;20202;-64
2021/11/13 12:13:50;;;;;;;19.02;6.68;;;22.70;92.20;;;;;;5057342;28;20668;-66
2021/11/13 12:16:26;;;;;;;18.45;7.03;;;22.70;91.80;;;;;;5050995;28;20188;-65
2021/11/13 12:18:52;;;;;;;19.15;7.00;;;22.60;91.90;;;;;;5051768;28;20241;-66
2021/11/13 12:21:19;;;;;;;17.13;6.97;;;22.50;91.80;;;;;;5065453;28;20229;-65
2021/11/13 12:23:49;;;;;;;20.30;6.63;;;22.30;92.20;;;;;;5056742;28;20810;-65
2021/11/13 12:26:33;;;;;;;16.10;7.50;;;22.30;91.90;;;;;;5053213;28;20256;-65
2021/11/13 12:29:06;;;;;;;21.70;7.63;;;22.20;92.80;;;;;;5058116;28;20194;-65
2021/11/13 12:31:47;;;;;;;19.60;7.13;;;22.10;92.30;;;;;;5050536;28;20207;-65
2021/11/13 12:34:24;;;;;;;17.13;7.63;;;22.00;93.00;;;;;;5063745;28;20183;-66
2021/11/13 12:36:57;;;;;;;15.43;6.63;;;22.00;93.40;;;;;;5052037;28;20215;-65
2021/11/13 12:39:25;;;;;;;19.47;7.23;;;21.90;93.20;;;;;;5060094;28;20265;-65
2021/11/13 12:42:04;;;;;;;13.60;7.37;;;22.00;92.90;;;;;;5060310;28;20548;-65
2021/11/13 12:44:36;;;;;;;18.77;6.67;;;22.00;92.80;;;;;;5073921;28;20239;-65
2021/11/13 12:47:11;;;;;;;25.27;7.22;;;22.10;93.00;;;;;;5057719;28;20193;-65
2021/11/13 12:49:47;;;;;;;22.80;7.77;;;22.20;92.80;;;;;;5048819;28;20188;-66
2021/11/13 12:52:46;;;;;;;14.43;6.37;;;22.20;92.70;;;;;;5056737;28;20297;-66
2021/11/13 12:55:22;;;;;;;25.40;6.33;;;22.30;92.60;;;;;;5053269;28;20663;-65
2021/11/13 12:58:20;;;;;;;14.93;6.37;;;22.30;92.00;;;;;;5052145;28;20917;-66
2021/11/13 13:00:56;;;;;;;16.40;6.97;;;22.30;91.90;;;;;;5055327;28;20190;-66
2021/11/13 13:03:31;;;;;;;15.83;6.23;;;22.30;92.00;;;;;;5055786;28;20243;-66
2021/11/13 13:06:07;;;;;;;21.27;6.50;;;22.30;91.80;;;;;;5036011;28;20186;-64
2021/11/13 13:08:34;;;;;;;29.93;7.27;;;22.30;93.10;;;;;;5061852;28;20235;-66
2021/11/13 13:11:11;;;;;;;18.37;6.57;;;22.30;93.50;;;;;;5064885;28;20228;-66
2021/11/13 13:13:39;;;;;;;17.45;6.18;;;22.30;93.60;;;;;;5048459;28;20194;-66
2021/11/13 13:16:07;;;;;;;17.33;6.57;;;22.20;92.50;;;;;;5051261;28;20270;-65
2021/11/13 13:18:34;;;;;;;16.43;5.90;;;22.20;92.10;;;;;;5051428;28;20692;-66
2021/11/13 13:21:01;;;;;;;24.70;6.03;;;22.30;91.50;;;;;;5053272;28;20257;-66
2021/11/13 13:23:30;;;;;;;19.90;5.67;;;22.10;90.90;;;;;;5057693;28;20310;-66
2021/11/13 13:26:04;;;;;;;24.13;6.00;;;22.10;90.40;;;;;;5057287;28;20190;-66
2021/11/13 13:28:33;;;;;;;19.50;5.83;;;22.00;90.90;;;;;;5061595;28;20198;-65
2021/11/13 13:31:05;;;;;;;16.57;6.30;;;22.00;91.40;;;;;;5057984;28;20183;-66
2021/11/13 13:33:32;;;;;;;23.90;6.87;;;21.90;91.70;;;;;;5063155;28;20698;-66
2021/11/13 13:35:59;;;;;;;11.93;4.93;;;21.90;92.50;;;;;;5062663;28;20206;-66
2021/11/13 13:38:26;;;;;;;16.30;5.43;;;21.80;89.50;;;;;;5055011;28;20214;-65
2021/11/13 13:41:03;;;;;;;11.77;4.97;;;21.80;90.00;;;;;;5054409;28;20187;-65
2021/11/13 13:43:45;;;;;;;10.73;5.50;;;21.70;90.50;;;;;;5058234;28;20324;-66
2021/11/13 13:46:29;;;;;;;13.13;5.37;;;21.60;91.00;;;;;;5060179;28;20190;-65
2021/11/13 13:49:01;;;;;;;19.23;5.83;;;21.50;91.70;;;;;;5057395;28;20248;-65
2021/11/13 13:51:35;;;;;;;20.60;5.23;;;21.40;92.10;;;;;;5048594;28;20276;-65
2021/11/13 13:54:16;;;;;;;14.50;5.60;;;21.30;92.20;;;;;;5052975;28;20195;-65
2021/11/13 13:56:48;;;;;;;11.40;5.27;;;21.20;92.50;;;;;;5056946;28;20221;-65
2021/11/13 13:59:32;;;;;;;15.03;5.03;;;21.20;92.70;;;;;;5059326;28;20262;-65
2021/11/13 14:02:03;;;;;;;18.07;5.17;;;21.10;90.90;;;;;;5054247;28;20800;-64
2021/11/13 14:04:36;;;;;;;15.87;5.20;;;21.00;91.90;;;;;;5061708;28;20206;-65
2021/11/13 14:07:30;;;;;;;11.20;5.60;;;20.90;92.20;;;;;;5060469;28;20837;-65
2021/11/13 14:10:02;;;;;;;18.77;5.23;;;20.80;92.60;;;;;;5058177;28;20241;-65
2021/11/13 14:12:43;;;;;;;21.33;6.33;;;20.70;93.20;;;;;;5057278;28;20186;-65
2021/11/13 14:15:21;;;;;;;15.97;5.90;;;20.60;94.40;;;;;;5053662;28;20186;-65
2021/11/13 14:18:15;;;;;;;17.63;6.37;;;20.60;94.60;;;;;;5057183;28;20245;-65
2021/11/13 14:20:48;;;;;;;15.33;5.70;;;20.50;95.60;;;;;;5056989;28;20186;-65
2021/11/13 14:23:25;;;;;;;13.00;6.63;;;20.30;96.50;;;;;;5033193;28;20597;-65
2021/11/13 14:26:01;;;;;;;12.73;6.53;;;20.20;98.50;;;;;;5055694;28;20190;-65
2021/11/13 14:28:42;;;;;;;20.90;7.07;;;20.20;98.80;;;;;;5063382;28;20206;-66
2021/11/13 14:31:21;;;;;;;15.30;6.50;;;20.10;99.50;;;;;;5050984;28;20290;-66
2021/11/13 14:33:55;;;;;;;16.90;7.13;;;20.00;99.90;;;;;;5058937;28;20190;-64
2021/11/13 14:36:27;;;;;;;19.37;7.30;;;20.00;99.90;;;;;;5054610;28;20544;-65
2021/11/13 14:38:57;;;;;;;17.90;6.83;;;19.80;99.90;;;;;;5055312;28;20255;-65
2021/11/13 14:41:24;;;;;;;22.33;7.37;;;19.80;99.90;;;;;;5063318;28;20190;-65
2021/11/13 14:43:51;;;;;;;18.30;6.40;;;19.80;99.90;;;;;;5058377;28;20195;-65
2021/11/13 14:46:24;;;;;;;18.93;6.70;;;19.60;99.90;;;;;;5060794;28;20190;-65
2021/11/13 14:49:01;;;;;;;18.10;8.10;;;19.50;99.90;;;;;;5061842;28;20213;-64
2021/11/13 14:51:27;;;;;;;18.87;7.70;;;19.30;99.90;;;;;;5056755;28;20186;-64
2021/11/13 14:53:54;;;;;;;30.80;12.10;;;19.20;99.90;;;;;;5058169;28;20195;-65
2021/11/13 14:56:28;;;;;;;35.87;14.43;;;19.10;99.90;;;;;;5054091;28;20187;-65
2021/11/13 14:59:07;;;;;;;29.40;12.43;;;19.00;99.90;;;;;;5067004;28;20225;-65
2021/11/13 15:01:42;;;;;;;40.43;10.67;;;19.00;99.90;;;;;;5056556;28;20194;-64
2021/11/13 15:04:22;;;;;;;34.57;11.87;;;18.90;99.90;;;;;;5060541;28;20187;-64
2021/11/13 15:07:07;;;;;;;28.27;11.97;;;18.80;99.90;;;;;;5066834;28;20179;-64
2021/11/13 15:09:56;;;;;;;33.47;14.43;;;18.80;99.90;;;;;;5062561;28;20194;-64
2021/11/13 15:12:28;;;;;;;27.20;11.60;;;18.70;99.90;;;;;;5062145;28;20655;-64
2021/11/13 15:15:02;;;;;;;23.17;10.03;;;18.60;99.90;;;;;;5060175;28;20225;-64
2021/11/13 15:17:44;;;;;;;28.93;11.10;;;18.50;99.90;;;;;;5069751;28;20206;-65
2021/11/13 15:20:23;;;;;;;27.00;10.43;;;18.40;99.90;;;;;;5059484;28;20235;-65
2021/11/13 15:22:58;;;;;;;18.17;9.07;;;18.40;99.90;;;;;;5064344;28;20312;-64
2021/11/13 15:25:31;;;;;;;20.77;9.27;;;18.40;99.90;;;;;;5058223;28;20249;-65
2021/11/13 15:28:02;;;;;;;26.50;10.50;;;18.30;99.90;;;;;;5062852;28;20199;-65
2021/11/13 15:30:37;;;;;;;22.37;9.13;;;18.20;99.90;;;;;;5057834;28;20552;-65
2021/11/13 15:33:11;;;;;;;22.20;8.40;;;18.10;99.90;;;;;;5055221;28;20197;-65
2021/11/13 15:35:42;;;;;;;21.43;8.10;;;18.00;99.90;;;;;;5054382;28;20277;-65
2021/11/13 15:38:29;;;;;;;15.87;7.07;;;18.00;99.90;;;;;;5060968;28;20841;-64
2021/11/13 15:40:57;;;;;;;24.53;7.20;;;18.00;99.90;;;;;;5059684;28;20935;-65
2021/11/13 15:43:27;;;;;;;16.77;6.90;;;18.10;99.90;;;;;;5066525;28;20274;-65
2021/11/13 15:46:03;;;;;;;19.07;7.50;;;18.30;99.90;;;;;;5065259;28;20631;-65
2021/11/13 15:48:41;;;;;;;20.23;7.07;;;18.40;99.50;;;;;;5055948;28;20190;-65
2021/11/13 15:51:12;;;;;;;15.07;6.30;;;18.50;99.40;;;;;;5051948;28;20191;-65
2021/11/13 15:54:00;;;;;;;12.70;6.90;;;18.60;99.10;;;;;;5057343;28;20275;-65
2021/11/13 15:56:37;;;;;;;23.63;7.70;;;18.70;99.10;;;;;;5052241;28;20329;-64
2021/11/13 15:59:10;;;;;;;22.03;7.83;;;18.70;99.00;;;;;;5054915;28;20286;-64
2021/11/13 16:01:48;;;;;;;18.33;7.67;;;18.70;98.90;;;;;;5054428;28;20929;-65
2021/11/13 16:04:16;;;;;;;24.73;8.13;;;18.60;98.90;;;;;;5052846;28;20660;-64
2021/11/13 16:06:46;;;;;;;23.60;7.93;;;18.60;98.80;;;;;;5059270;28;20187;-65
2021/11/13 16:09:23;;;;;;;23.50;7.70;;;18.50;98.70;;;;;;5054199;28;20187;-64
2021/11/13 16:11:54;;;;;;;16.53;7.53;;;18.50;98.60;;;;;;5062874;28;20269;-64
2021/11/13 16:14:21;;;;;;;19.80;7.83;;;18.50;98.50;;;;;;5062662;28;20206;-64
2021/11/13 16:16:48;;;;;;;21.50;7.00;;;18.50;98.50;;;;;;5062235;28;20674;-65
2021/11/13 16:19:15;;;;;;;20.17;7.97;;;18.50;98.50;;;;;;5056546;28;20571;-64
2021/11/13 16:21:42;;;;;;;21.87;6.73;;;18.50;98.50;;;;;;5051693;28;20218;-65
2021/11/13 16:24:09;;;;;;;17.43;7.60;;;18.40;98.40;;;;;;5062694;28;20264;-65
2021/11/13 16:26:35;;;;;;;22.17;7.90;;;18.40;98.40;;;;;;5055175;28;20225;-65
2021/11/13 16:29:05;;;;;;;16.20;7.53;;;18.30;98.40;;;;;;5055021;28;20218;-65
2021/11/13 16:31:32;;;;;;;23.73;7.00;;;18.30;98.40;;;;;;5051312;28;20194;-64
2021/11/13 16:33:58;;;;;;;20.87;7.57;;;18.30;98.30;;;;;;5062788;28;20191;-65
2021/11/13 16:36:25;;;;;;;18.13;7.53;;;18.20;98.20;;;;;;5050692;28;20270;-65
2021/11/13 16:38:52;;;;;;;19.23;8.03;;;18.20;98.20;;;;;;5061407;28;20227;-65
2021/11/13 16:41:20;;;;;;;17.77;7.47;;;18.20;98.20;;;;;;5055920;28;20191;-65
2021/11/13 16:43:58;;;;;;;24.27;7.43;;;18.10;98.10;;;;;;5060575;28;20766;-64
2021/11/13 16:46:32;;;;;;;20.80;7.97;;;18.10;98.00;;;;;;5051502;28;20194;-65
2021/11/13 16:49:00;;;;;;;19.07;7.83;;;18.10;98.00;;;;;;5057168;28;20241;-65
2021/11/13 16:51:35;;;;;;;21.47;8.53;;;18.10;98.10;;;;;;5050791;28;20547;-65
2021/11/13 16:54:07;;;;;;;20.40;8.63;;;18.00;97.80;;;;;;5041025;28;20179;-65
2021/11/13 16:56:36;;;;;;;16.70;8.97;;;18.00;97.90;;;;;;5049437;28;20691;-65
2021/11/13 16:59:05;;;;;;;17.20;7.77;;;18.00;97.90;;;;;;5060460;28;20191;-65
2021/11/13 17:01:39;;;;;;;13.67;6.87;;;17.90;97.80;;;;;;5034059;28;20208;-67
2021/11/13 17:04:11;;;;;;;25.23;8.70;;;17.90;97.90;;;;;;5057039;28;20190;-65
2021/11/13 17:06:40;;;;;;;15.47;7.30;;;17.80;97.80;;;;;;5050282;28;20643;-66
2021/11/13 17:09:09;;;;;;;15.67;6.90;;;17.70;97.80;;;;;;5049675;28;20281;-66
2021/11/13 17:11:41;;;;;;;19.17;7.07;;;17.70;97.90;;;;;;5056993;28;20187;-66
2021/11/13 17:14:09;;;;;;;14.93;6.97;;;17.70;98.00;;;;;;5054811;28;20193;-65
2021/11/13 17:16:39;;;;;;;20.97;7.50;;;17.70;97.90;;;;;;5052638;28;20315;-65
2021/11/13 17:19:14;;;;;;;15.50;6.70;;;17.60;98.00;;;;;;5061314;28;20291;-65
2021/11/13 17:21:45;;;;;;;15.27;6.40;;;17.50;98.00;;;;;;5053791;28;20255;-65
2021/11/13 17:24:14;;;;;;;17.03;7.03;;;17.50;98.10;;;;;;5050304;28;20281;-65
2021/11/13 17:26:41;;;;;;;17.90;7.10;;;17.40;98.00;;;;;;5055316;28;21981;-65
2021/11/13 17:29:14;;;;;;;19.23;7.77;;;17.30;98.00;;;;;;5061480;28;20183;-65
2021/11/13 17:31:42;;;;;;;20.63;8.27;;;17.30;98.10;;;;;;5052557;28;21085;-65
2021/11/13 17:34:10;;;;;;;20.23;8.23;;;17.30;98.30;;;;;;5060944;28;20318;-65
2021/11/13 17:36:41;;;;;;;15.13;7.83;;;17.20;98.00;;;;;;5062804;28;20205;-65
2021/11/13 17:39:08;;;;;;;23.57;6.93;;;17.10;98.20;;;;;;5050995;28;20217;-65
2021/11/13 17:41:35;;;;;;;16.20;6.77;;;17.10;98.30;;;;;;5059008;28;20257;-65
2021/11/13 17:44:02;;;;;;;28.23;8.87;;;17.10;98.30;;;;;;5054520;28;20675;-64
2021/11/13 17:46:28;;;;;;;24.30;9.83;;;17.10;98.30;;;;;;5057093;28;20210;-65
2021/11/13 17:48:55;;;;;;;20.13;8.67;;;17.10;98.50;;;;;;5057079;28;20202;-65
2021/11/13 17:51:21;;;;;;;18.00;7.90;;;17.10;98.60;;;;;;5058847;28;20226;-65
2021/11/13 17:53:48;;;;;;;26.20;8.00;;;17.10;98.60;;;;;;5056456;28;20205;-66
2021/11/13 17:56:14;;;;;;;17.17;8.57;;;17.10;98.70;;;;;;5054274;28;20248;-65
2021/11/13 17:58:41;;;;;;;25.53;16.67;;;17.00;98.60;;;;;;5048870;28;20293;-65
2021/11/13 18:01:14;;;;;;;26.27;13.83;;;17.00;98.80;;;;;;5056288;28;20175;-67
2021/11/13 18:03:43;;;;;;;21.53;11.70;;;17.00;98.60;;;;;;5059519;28;20202;-65
2021/11/13 18:06:10;;;;;;;16.43;9.23;;;17.00;98.60;;;;;;5056015;28;20195;-65
2021/11/13 18:08:37;;;;;;;21.40;8.07;;;16.90;98.70;;;;;;5048511;28;20194;-65
2021/11/13 18:11:09;;;;;;;16.43;8.43;;;16.80;98.80;;;;;;5050852;28;20191;-66
2021/11/13 18:13:37;;;;;;;32.37;17.00;;;16.80;98.80;;;;;;5048790;28;20230;-66
2021/11/13 18:16:05;;;;;;;44.43;21.30;;;16.80;98.90;;;;;;5056925;28;20198;-66
2021/11/13 18:18:37;;;;;;;35.77;15.00;;;16.70;98.80;;;;;;5052878;28;20301;-65
2021/11/13 18:21:03;;;;;;;30.93;13.60;;;16.70;98.90;;;;;;5058530;28;20182;-65
2021/11/13 18:23:30;;;;;;;26.77;10.97;;;16.70;99.00;;;;;;5057355;28;20214;-64
2021/11/13 18:25:57;;;;;;;32.57;13.40;;;16.70;98.90;;;;;;5054048;28;20680;-65
2021/11/13 18:28:24;;;;;;;35.23;13.07;;;16.60;99.00;;;;;;5062805;28;20187;-65
2021/11/13 18:30:51;;;;;;;29.13;11.73;;;16.60;98.90;;;;;;5065749;28;20213;-65
2021/11/13 18:33:23;;;;;;;21.93;10.23;;;16.50;98.80;;;;;;5056191;28;20932;-67
2021/11/13 18:35:50;;;;;;;17.43;8.20;;;16.50;99.10;;;;;;5064892;28;20187;-66
2021/11/13 18:38:19;;;;;;;24.47;9.60;;;16.50;99.00;;;;;;5056965;28;20215;-68
2021/11/13 18:40:50;;;;;;;29.30;10.20;;;16.50;98.90;;;;;;5051132;28;20233;-65
2021/11/13 18:43:18;;;;;;;18.50;9.63;;;16.40;98.90;;;;;;5054797;28;20180;-65
2021/11/13 18:45:47;;;;;;;22.33;10.90;;;16.40;98.70;;;;;;5061313;28;20237;-65
2021/11/13 18:48:23;;;;;;;18.67;9.60;;;16.30;98.50;;;;;;5066479;28;20567;-66
2021/11/13 18:50:56;;;;;;;14.80;6.83;;;16.30;98.70;;;;;;5055589;28;20217;-66
2021/11/13 18:53:23;;;;;;;21.70;7.43;;;16.30;98.60;;;;;;5061185;28;20191;-65
2021/11/13 18:55:50;;;;;;;18.23;7.63;;;16.20;98.80;;;;;;5061927;28;20197;-65
2021/11/13 18:58:17;;;;;;;16.97;6.77;;;16.20;98.80;;;;;;5054474;28;20246;-65
2021/11/13 19:00:44;;;;;;;19.00;7.53;;;16.20;99.00;;;;;;5065347;28;20183;-65
2021/11/13 19:03:11;;;;;;;24.50;8.30;;;16.20;98.90;;;;;;5067871;28;20670;-65
2021/11/13 19:05:37;;;;;;;18.47;7.40;;;16.10;98.80;;;;;;5061303;28;20730;-65
2021/11/13 19:08:04;;;;;;;20.17;8.80;;;16.10;99.00;;;;;;5056655;28;20187;-65
2021/11/13 19:10:31;;;;;;;24.20;9.30;;;16.10;99.10;;;;;;5058909;28;20274;-65
2021/11/13 19:12:58;;;;;;;27.17;13.27;;;16.10;99.20;;;;;;5058885;28;20262;-65
2021/11/13 19:15:25;;;;;;;34.07;13.00;;;16.00;99.20;;;;;;5058576;28;20209;-65
2021/11/13 19:17:52;;;;;;;32.37;12.10;;;15.90;99.20;;;;;;5061257;28;20249;-64
2021/11/13 19:20:19;;;;;;;20.00;8.63;;;15.90;99.30;;;;;;5060589;28;20257;-65
2021/11/13 19:22:47;;;;;;;24.30;8.43;;;15.80;99.40;;;;;;5062229;28;20256;-65
2021/11/13 19:25:15;;;;;;;19.47;8.73;;;15.80;99.20;;;;;;5052262;28;20520;-65
2021/11/13 19:27:42;;;;;;;22.80;8.80;;;15.80;99.30;;;;;;5060522;28;20241;-64
2021/11/13 19:30:16;;;;;;;22.13;8.57;;;15.80;99.30;;;;;;5058576;28;20313;-65
2021/11/13 19:32:43;;;;;;;18.30;8.30;;;15.80;99.40;;;;;;5051271;28;20213;-65
2021/11/13 19:35:13;;;;;;;21.97;9.37;;;15.70;99.50;;;;;;5058137;28;20187;-65
2021/11/13 19:37:44;;;;;;;25.93;10.90;;;15.70;99.60;;;;;;5056811;28;20249;-64
2021/11/13 19:40:15;;;;;;;30.90;10.93;;;15.60;99.50;;;;;;5053890;28;20191;-65
2021/11/13 19:42:51;;;;;;;28.63;9.13;;;15.70;99.80;;;;;;5055656;28;20732;-65
2021/11/13 19:45:20;;;;;;;20.37;8.00;;;15.60;99.40;;;;;;5049929;28;20192;-65
2021/11/13 19:47:47;;;;;;;26.03;8.83;;;15.60;99.20;;;;;;5052076;28;20194;-65
2021/11/13 19:50:18;;;;;;;26.57;8.50;;;15.50;98.90;;;;;;5051633;28;20191;-65
2021/11/13 19:52:45;;;;;;;16.83;6.90;;;15.50;98.70;;;;;;5052776;28;20188;-65
2021/11/13 19:55:12;;;;;;;15.00;6.30;;;15.40;98.10;;;;;;5052432;28;20190;-65
2021/11/13 19:57:39;;;;;;;19.07;6.67;;;15.30;97.90;;;;;;5051350;28;20229;-65
2021/11/13 20:00:16;;;;;;;25.13;11.50;;;15.30;97.90;;;;;;5055186;28;20618;-65
2021/11/13 20:02:43;;;;;;;25.30;8.93;;;15.40;97.50;;;;;;5058595;28;20982;-64
2021/11/13 20:05:11;;;;;;;22.70;8.97;;;15.30;97.40;;;;;;5053696;28;20180;-65
2021/11/13 20:07:39;;;;;;;23.57;8.20;;;15.20;97.10;;;;;;5060267;28;20191;-64
2021/11/13 20:10:10;;;;;;;18.23;7.53;;;15.20;96.90;;;;;;5060320;28;20678;-65
2021/11/13 20:12:38;;;;;;;26.43;8.17;;;15.20;97.00;;;;;;5058869;28;20325;-64
2021/11/13 20:15:08;;;;;;;26.07;7.27;;;15.10;96.50;;;;;;5057889;28;20679;-65
2021/11/13 20:17:36;;;;;;;14.40;6.83;;;15.10;96.30;;;;;;5070540;28;20298;-65
2021/11/13 20:20:05;;;;;;;15.47;6.23;;;15.10;96.50;;;;;;5046496;28;20817;-65
2021/11/13 20:22:32;;;;;;;12.83;5.77;;;15.10;95.90;;;;;;5049459;28;20198;-65
2021/11/13 20:24:59;;;;;;;16.20;5.67;;;15.10;96.00;;;;;;5055874;28;20245;-65
2021/11/13 20:27:26;;;;;;;16.37;5.87;;;15.20;96.00;;;;;;5050681;28;20183;-65
2021/11/13 20:29:52;;;;;;;22.80;8.87;;;15.10;96.10;;;;;;5052673;28;20220;-65
2021/11/13 20:32:19;;;;;;;16.47;6.50;;;15.10;96.20;;;;;;5054956;28;20197;-66
2021/11/13 20:34:47;;;;;;;27.53;9.03;;;15.10;95.90;;;;;;5039304;28;20253;-65
2021/11/13 20:37:17;;;;;;;29.43;13.80;;;15.10;96.00;;;;;;5048009;28;20749;-65
2021/11/13 20:39:49;;;;;;;29.57;11.07;;;15.00;95.70;;;;;;5050789;28;20191;-64
2021/11/13 20:42:17;;;;;;;41.77;13.23;;;15.00;96.00;;;;;;5050929;28;20196;-64
2021/11/13 20:44:46;;;;;;;30.53;11.37;;;15.00;96.00;;;;;;5056971;28;20172;-64
2021/11/13 20:47:14;;;;;;;29.27;10.67;;;14.90;96.10;;;;;;5059390;28;20835;-65
2021/11/13 20:49:43;;;;;;;17.00;7.53;;;14.90;96.10;;;;;;5053843;28;20240;-64
2021/11/13 20:52:13;;;;;;;36.30;13.33;;;14.90;95.50;;;;;;5051083;28;20287;-64
2021/11/13 20:54:43;;;;;;;36.93;13.07;;;14.90;95.60;;;;;;5054087;28;20816;-64
2021/11/13 20:57:10;;;;;;;27.10;8.23;;;14.90;95.60;;;;;;5049916;28;20574;-64
2021/11/13 20:59:36;;;;;;;19.53;8.53;;;14.90;95.40;;;;;;5055946;28;20188;-64
2021/11/13 21:02:03;;;;;;;22.37;8.23;;;14.80;95.20;;;;;;5056323;28;20745;-64
2021/11/13 21:04:34;;;;;;;18.53;6.83;;;14.80;94.90;;;;;;5051752;28;20188;-65
2021/11/13 21:07:04;;;;;;;17.43;6.50;;;14.80;95.00;;;;;;5051860;28;20755;-65
2021/11/13 21:09:38;;;;;;;14.20;7.30;;;14.80;95.00;;;;;;5056081;28;20906;-65
2021/11/13 21:12:06;;;;;;;20.50;5.80;;;14.70;95.10;;;;;;5037784;28;20184;-65
2021/11/13 21:14:33;;;;;;;22.43;7.57;;;14.70;94.80;;;;;;5056368;28;20244;-64
2021/11/13 21:17:00;;;;;;;19.07;7.87;;;14.70;94.90;;;;;;5056600;28;20527;-65
2021/11/13 21:19:30;;;;;;;24.33;8.73;;;14.70;94.90;;;;;;5067973;28;20310;-64
2021/11/13 21:22:01;;;;;;;37.50;16.37;;;14.60;94.70;;;;;;5054094;28;20194;-63
2021/11/13 21:24:28;;;;;;;33.37;13.93;;;14.60;94.80;;;;;;5045326;28;20202;-64
2021/11/13 21:26:56;;;;;;;26.00;9.77;;;14.60;94.70;;;;;;5048350;28;20322;-64
2021/11/13 21:29:26;;;;;;;21.73;10.80;;;14.50;94.40;;;;;;5044822;28;20547;-63
2021/11/13 21:31:54;;;;;;;16.57;7.60;;;14.50;94.60;;;;;;5059593;28;20282;-64
2021/11/13 21:34:21;;;;;;;24.53;7.40;;;14.50;94.60;;;;;;5036310;28;20187;-64
2021/11/13 21:36:49;;;;;;;25.30;6.73;;;14.40;94.50;;;;;;5051057;28;20239;-64
2021/11/13 21:39:16;;;;;;;24.13;6.90;;;14.40;94.50;;;;;;5053236;28;20252;-67
2021/11/13 21:41:46;;;;;;;19.87;7.03;;;14.40;94.60;;;;;;5060179;28;20214;-64
2021/11/13 21:44:15;;;;;;;26.50;7.17;;;14.40;94.50;;;;;;5052334;28;20934;-64
2021/11/13 21:46:43;;;;;;;15.53;5.93;;;14.40;94.60;;;;;;5052009;28;20181;-66
2021/11/13 21:49:10;;;;;;;21.90;5.40;;;14.30;94.70;;;;;;5057764;28;20187;-64
2021/11/13 21:51:37;;;;;;;16.43;5.60;;;14.30;94.70;;;;;;5051541;28;20298;-64
2021/11/13 21:54:04;;;;;;;18.50;5.43;;;14.30;94.90;;;;;;5052575;28;20201;-64
2021/11/13 21:56:33;;;;;;;15.27;4.77;;;14.20;95.10;;;;;;5052195;28;20982;-63
2021/11/13 21:59:00;;;;;;;13.67;5.40;;;14.20;95.40;;;;;;5052769;28;20219;-66
2021/11/13 22:01:27;;;;;;;17.53;5.70;;;14.20;95.70;;;;;;5050473;28;20712;-65
2021/11/13 22:03:54;;;;;;;15.73;5.43;;;14.20;96.00;;;;;;5067332;28;20191;-65
2021/11/13 22:06:20;;;;;;;19.73;5.63;;;14.20;96.20;;;;;;5050136;28;20894;-66
2021/11/13 22:08:47;;;;;;;15.17;5.13;;;14.20;96.70;;;;;;5052918;28;20714;-65
2021/11/13 22:11:13;;;;;;;10.47;4.73;;;14.20;96.30;;;;;;5051288;28;20277;-66
2021/11/13 22:13:40;;;;;;;14.43;5.13;;;14.20;95.60;;;;;;5048399;28;20194;-65
2021/11/13 22:16:07;;;;;;;17.43;5.33;;;14.20;95.30;;;;;;5049191;28;20198;-64
2021/11/13 22:18:34;;;;;;;11.23;4.67;;;14.10;95.00;;;;;;5058934;28;20597;-67
2021/11/13 22:21:02;;;;;;;12.63;5.00;;;14.20;94.90;;;;;;5053488;28;20278;-66
2021/11/13 22:23:30;;;;;;;13.83;5.03;;;14.20;94.90;;;;;;5054540;28;20241;-66
2021/11/13 22:25:57;;;;;;;19.50;6.30;;;14.20;94.60;;;;;;5046117;28;20274;-66
2021/11/13 22:28:24;;;;;;;19.57;5.70;;;14.20;94.40;;;;;;5048895;28;20183;-66
2021/11/13 22:30:56;;;;;;;15.23;6.03;;;14.20;94.50;;;;;;5052913;28;20188;-63
2021/11/13 22:33:24;;;;;;;14.53;5.43;;;14.20;94.50;;;;;;5057161;28;20191;-66
2021/11/13 22:35:51;;;;;;;19.97;5.60;;;14.20;94.60;;;;;;5054149;28;20196;-66
2021/11/13 22:38:20;;;;;;;16.50;5.07;;;14.20;94.30;;;;;;5047671;28;20242;-65
2021/11/13 22:40:48;;;;;;;17.23;5.47;;;14.20;94.30;;;;;;5053518;28;20829;-65
2021/11/13 22:43:17;;;;;;;13.60;4.50;;;14.20;94.10;;;;;;5051494;28;20241;-66
2021/11/13 22:45:48;;;;;;;16.17;5.50;;;14.20;93.90;;;;;;5043707;28;20188;-66
2021/11/13 22:48:18;;;;;;;13.63;5.00;;;14.10;94.10;;;;;;5044862;28;20191;-66
2021/11/13 22:50:48;;;;;;;20.20;5.30;;;14.20;94.60;;;;;;5056006;28;20286;-65
2021/11/13 22:53:16;;;;;;;13.23;4.87;;;14.20;94.40;;;;;;5047563;28;20598;-64
2021/11/13 22:55:44;;;;;;;15.90;5.30;;;14.20;94.20;;;;;;5053501;28;20190;-63